Time;durP1;ratioP1;P1;durP2;ratioP2;P2;SDS_P1;SDS_P2;PMS_P1;PMS_P2;Temp;Humidity;BMP_temperature;BMP_pressure;BME280_temperature;BME280_humidity;BME280_pressure;Samples;Min_cycle;Max_cycle;Signal;HPM_P1;HPM_P2
2021/07/29 00:02:06;;;;;;;5.67;2.10;;;;;;;16.81;70.47;100316.44;125242;1096;64243;-82
2021/07/29 00:04:37;;;;;;;4.93;2.10;;;;;;;16.86;70.42;100305.88;125167;1095;64307;-84
2021/07/29 00:07:04;;;;;;;3.03;1.47;;;;;;;16.88;69.96;100317.19;125437;1096;64221;-84
2021/07/29 00:09:31;;;;;;;5.17;2.13;;;;;;;16.88;70.23;100311.83;125475;1096;64284;-80
2021/07/29 00:12:10;;;;;;;5.75;1.80;;;;;;;16.84;69.86;100319.49;125079;1094;64380;-82
2021/07/29 00:14:46;;;;;;;3.20;1.87;;;;;;;16.80;70.64;100309.42;125180;1095;64138;-81
2021/07/29 00:17:27;;;;;;;3.60;1.43;;;;;;;16.74;70.35;100305.78;124708;1095;64328;-81
2021/07/29 00:20:06;;;;;;;4.85;1.90;;;;;;;16.65;70.19;100307.95;124846;1096;64204;-80
2021/07/29 00:22:33;;;;;;;3.97;1.57;;;;;;;16.59;70.88;100303.48;125405;1096;64380;-80
2021/07/29 00:25:01;;;;;;;3.65;1.75;;;;;;;16.53;70.63;100293.66;125005;1095;65025;-81
2021/07/29 00:27:49;;;;;;;4.93;1.53;;;;;;;16.47;70.77;100299.94;125134;1096;64318;-79
2021/07/29 00:30:20;;;;;;;6.17;1.90;;;;;;;16.40;70.89;100291.15;124902;1096;64342;-80
2021/07/29 00:33:09;;;;;;;3.60;1.70;;;;;;;16.33;71.16;100293.09;125176;1095;64294;-80
2021/07/29 00:35:49;;;;;;;;;;;;;;;;;;;;;
2021/07/29 00:38:20;;;;;;;5.90;1.73;;;;;;;16.20;72.32;100289.51;125059;1096;64284;-81
2021/07/29 00:40:49;;;;;;;3.73;1.73;;;;;;;16.17;72.92;100284.61;125099;1095;64326;-81
2021/07/29 00:43:16;;;;;;;2.93;1.57;;;;;;;16.15;72.55;100281.34;125219;1095;64290;-80
2021/07/29 00:45:45;;;;;;;3.90;1.77;;;;;;;16.12;73.05;100276.41;125111;1096;64261;-82
2021/07/29 00:48:16;;;;;;;3.47;1.83;;;;;;;16.10;73.15;100262.44;125284;1096;64787;-83
2021/07/29 00:50:44;;;;;;;3.00;1.67;;;;;;;16.08;73.00;100267.20;124800;1095;64397;-85
2021/07/29 00:53:18;;;;;;;3.17;1.90;;;;;;;16.06;73.17;100262.05;125153;1096;64282;-83
2021/07/29 00:55:46;;;;;;;6.33;1.70;;;;;;;16.03;73.57;100257.16;125095;1096;64278;-80
2021/07/29 00:58:13;;;;;;;3.87;1.83;;;;;;;16.00;73.77;100259.45;125151;1095;64301;-82
2021/07/29 01:00:43;;;;;;;4.10;1.70;;;;;;;15.96;73.77;100256.42;125139;1096;64295;-82
2021/07/29 01:03:10;;;;;;;5.80;1.73;;;;;;;15.92;73.84;100252.55;125294;1095;64246;-84
2021/07/29 01:05:38;;;;;;;2.73;1.47;;;;;;;15.88;74.58;100254.03;125043;1096;64301;-85
2021/07/29 01:08:08;;;;;;;4.33;1.80;;;;;;;15.83;74.85;100260.05;125321;1096;64284;-82
2021/07/29 01:10:38;;;;;;;3.80;1.90;;;;;;;15.81;75.25;100251.42;125309;1096;64279;-81
2021/07/29 01:13:08;;;;;;;4.35;1.90;;;;;;;15.79;75.38;100250.82;125231;1095;65193;-80
2021/07/29 01:15:48;;;;;;;3.67;1.90;;;;;;;15.78;75.75;100259.05;125070;1096;64291;-81
2021/07/29 01:18:16;;;;;;;4.60;1.80;;;;;;;15.77;75.17;100258.24;124828;1095;64333;-82
2021/07/29 01:20:43;;;;;;;12.55;1.95;;;;;;;15.78;75.49;100264.41;125355;1094;64256;-81
2021/07/29 01:23:13;;;;;;;3.10;1.83;;;;;;;15.80;75.65;100257.80;125280;1095;64285;-81
2021/07/29 01:25:43;;;;;;;5.53;2.20;;;;;;;15.85;75.40;100255.30;125175;1096;64377;-81
2021/07/29 01:28:10;;;;;;;4.33;1.77;;;;;;;15.92;74.53;100255.22;126918;1095;64165;-81
2021/07/29 01:30:38;;;;;;;4.73;1.70;;;;;;;16.00;74.26;100256.78;128215;1094;62423;-82
2021/07/29 01:33:05;;;;;;;7.90;1.90;;;;;;;16.07;73.67;100269.06;125775;1096;64320;-81
2021/07/29 01:35:32;;;;;;;4.90;1.90;;;;;;;16.14;73.52;100268.98;125546;1095;64279;-81
2021/07/29 01:38:11;;;;;;;;;;;;;;;;;;;;;
2021/07/29 01:40:47;;;;;;;3.30;1.73;;;;;;;16.23;73.49;100299.76;125073;1095;64406;-83
2021/07/29 01:43:29;;;;;;;3.87;1.57;;;;;;;16.27;73.70;100300.14;125276;1096;64282;-82
2021/07/29 01:46:00;;;;;;;3.03;1.43;;;;;;;16.30;74.60;100316.59;125225;1095;64466;-82
2021/07/29 01:48:31;;;;;;;3.27;1.33;;;;;;;16.27;76.06;100332.26;125180;1096;64304;-85
2021/07/29 01:51:09;;;;;;;3.70;1.57;;;;;;;16.19;77.95;100321.84;125573;1096;64702;-81
2021/07/29 01:53:36;;;;;;;4.33;1.80;;;;;;;16.10;78.62;100315.95;125234;1095;64282;-82
2021/07/29 01:56:14;;;;;;;3.10;1.80;;;;;;;15.96;80.07;100317.11;125006;1096;64262;-83
2021/07/29 01:58:41;;;;;;;4.53;1.97;;;;;;;15.81;80.96;100320.95;125266;1095;64355;-80
2021/07/29 02:01:32;;;;;;;;;;;;;;;;;;;;;
2021/07/29 02:04:04;;;;;;;4.60;2.00;;;;;;;15.57;81.51;100297.66;125476;1096;64304;-85
2021/07/29 02:06:33;;;;;;;5.87;2.07;;;;;;;15.48;82.58;100303.27;125048;1095;64318;-84
2021/07/29 02:09:06;;;;;;;6.67;1.87;;;;;;;15.42;82.46;100300.65;125262;1096;64174;-83
2021/07/29 02:11:37;;;;;;;6.13;2.40;;;;;;;15.36;83.92;100304.99;125111;1096;64254;-83
2021/07/29 02:14:05;;;;;;;2.87;1.70;;;;;;;15.34;83.26;100307.06;125287;1096;62918;-83
2021/07/29 02:16:47;;;;;;;6.67;2.33;;;;;;;15.31;84.64;100326.21;125451;1096;64294;-82
2021/07/29 02:19:27;;;;;;;4.03;2.37;;;;;;;15.26;85.36;100326.05;125501;1096;64319;-83
2021/07/29 02:21:58;;;;;;;8.70;2.90;;;;;;;15.21;86.97;100328.53;125446;1096;65407;-82
2021/07/29 02:24:27;;;;;;;5.60;2.60;;;;;;;15.14;86.42;100309.87;125654;1095;64312;-84
2021/07/29 02:27:23;;;;;;;4.63;1.80;;;;;;;15.05;87.27;100309.30;125166;1096;64397;-84
2021/07/29 02:29:59;;;;;;;4.87;1.90;;;;;;;14.95;87.14;100308.94;125296;1096;64368;-84
2021/07/29 02:32:28;;;;;;;3.97;2.00;;;;;;;14.89;87.37;100299.11;125341;1096;64448;-85
2021/07/29 02:35:05;;;;;;;3.27;1.50;;;;;;;14.84;87.60;100297.08;126205;1096;64180;-83
2021/07/29 02:37:36;;;;;;;6.07;2.43;;;;;;;14.81;87.67;100288.66;125968;1095;64323;-84
2021/07/29 02:40:03;;;;;;;4.27;2.20;;;;;;;14.79;88.23;100280.05;125285;1095;63115;-84
2021/07/29 02:42:31;;;;;;;2.65;1.70;;;;;;;14.77;87.46;100258.08;124935;1096;64175;-84
2021/07/29 02:45:02;;;;;;;3.60;1.60;;;;;;;14.76;87.83;100256.45;125267;1096;64390;-83
2021/07/29 02:47:33;;;;;;;4.60;1.80;;;;;;;14.75;88.43;100254.80;125291;1096;64276;-85
2021/07/29 02:50:01;;;;;;;4.13;2.13;;;;;;;14.71;88.23;100257.09;125234;1094;64236;-84
2021/07/29 02:52:51;;;;;;;;;;;;;;;;;;;;;
2021/07/29 02:55:27;;;;;;;2.50;1.40;;;;;;;14.72;88.50;100260.58;125531;1095;64732;-83
2021/07/29 02:58:03;;;;;;;3.53;1.77;;;;;;;14.72;88.67;100266.73;126207;1095;64323;-83
2021/07/29 03:00:42;;;;;;;3.13;1.57;;;;;;;14.73;88.78;100267.54;125286;1094;64294;-83
2021/07/29 03:03:20;;;;;;;3.50;1.70;;;;;;;14.72;89.45;100258.72;125361;1095;64278;-83
2021/07/29 03:05:59;;;;;;;4.10;1.80;;;;;;;14.74;88.79;100253.98;125347;1096;62281;-83
2021/07/29 03:08:38;;;;;;;3.13;1.83;;;;;;;14.76;88.90;100245.77;125489;1096;64307;-83
2021/07/29 03:11:17;;;;;;;3.60;1.33;;;;;;;14.75;89.38;100239.63;125558;1096;64255;-82
2021/07/29 03:14:00;;;;;;;;;;;;;;;;;;;;;
2021/07/29 03:16:31;;;;;;;7.53;2.33;;;;;;;14.76;90.19;100251.11;125274;1096;64378;-85
2021/07/29 03:19:01;;;;;;;5.70;2.20;;;;;;;14.77;89.92;100255.41;125088;1096;64389;-83
2021/07/29 03:21:29;;;;;;;2.63;1.53;;;;;;;14.77;90.16;100252.73;125526;1095;64329;-86
2021/07/29 03:23:59;;;;;;;2.93;1.70;;;;;;;14.80;90.31;100263.01;125600;1096;64117;-83
2021/07/29 03:26:32;;;;;;;3.80;1.70;;;;;;;14.80;90.10;100260.34;125226;1095;64160;-83
2021/07/29 03:28:59;;;;;;;2.85;1.85;;;;;;;14.80;90.24;100255.81;124923;1095;64207;-84
2021/07/29 03:31:27;;;;;;;4.93;2.10;;;;;;;14.82;90.04;100267.09;125516;1095;64309;-83
2021/07/29 03:33:57;;;;;;;4.60;1.85;;;;;;;14.81;90.41;100265.47;125173;1096;64271;-85
2021/07/29 03:36:28;;;;;;;4.53;2.23;;;;;;;14.79;89.94;100246.17;125400;1095;64287;-85
2021/07/29 03:38:56;;;;;;;3.30;1.87;;;;;;;14.81;89.68;100248.61;125235;1096;64261;-86
2021/07/29 03:41:38;;;;;;;4.37;1.97;;;;;;;14.81;89.47;100253.95;125288;1095;64237;-84
2021/07/29 03:44:14;;;;;;;3.93;2.10;;;;;;;14.82;89.23;100252.94;125405;1096;64233;-83
2021/07/29 03:46:54;;;;;;;3.60;1.77;;;;;;;14.84;89.02;100245.53;125328;1095;64336;-83
2021/07/29 03:49:30;;;;;;;3.93;1.90;;;;;;;14.87;88.39;100247.76;125501;1095;64444;-85
2021/07/29 03:52:25;;;;;;;5.20;1.75;;;;;;;14.91;88.44;100248.97;125447;1095;64230;-87
2021/07/29 03:54:55;;;;;;;2.57;1.60;;;;;;;14.97;87.62;100258.80;125093;1096;64715;-84
2021/07/29 03:57:39;;;;;;;3.47;1.80;;;;;;;15.01;87.83;100252.00;124985;1096;64304;-87
2021/07/29 04:00:17;;;;;;;6.40;2.57;;;;;;;15.04;87.81;100264.91;125585;1096;64397;-84
2021/07/29 04:02:50;;;;;;;3.05;1.80;;;;;;;15.08;87.24;100266.12;125334;1095;64224;-82
2021/07/29 04:05:21;;;;;;;4.10;1.40;;;;;;;15.09;87.64;100262.43;125394;1096;64209;-83
2021/07/29 04:07:49;;;;;;;4.85;2.30;;;;;;;15.12;87.81;100271.05;125175;1096;64378;-83
2021/07/29 04:10:19;;;;;;;3.83;1.80;;;;;;;15.13;87.86;100261.98;125402;1094;64204;-85
2021/07/29 04:12:47;;;;;;;4.05;2.35;;;;;;;15.12;87.67;100260.36;125485;1095;64240;-85
2021/07/29 04:15:15;;;;;;;3.65;2.10;;;;;;;15.12;87.76;100244.33;125123;1095;64383;-85
2021/07/29 04:17:42;;;;;;;5.53;2.90;;;;;;;15.13;88.01;100243.28;125492;1096;65040;-84
2021/07/29 04:20:20;;;;;;;6.33;2.40;;;;;;;15.13;88.22;100256.64;125779;1096;64282;-86
2021/07/29 04:22:47;;;;;;;4.07;1.87;;;;;;;15.15;87.71;100259.92;125705;1096;64214;-86
2021/07/29 04:25:17;;;;;;;3.17;1.90;;;;;;;15.17;87.21;100257.84;125329;1095;64432;-84
2021/07/29 04:27:47;;;;;;;3.53;2.30;;;;;;;15.19;87.17;100267.28;125441;1096;64421;-84
2021/07/29 04:30:15;;;;;;;4.87;1.87;;;;;;;15.21;87.11;100272.42;125712;1095;64238;-85
2021/07/29 04:32:46;;;;;;;5.40;2.20;;;;;;;15.23;87.34;100273.02;125550;1095;64305;-84
2021/07/29 04:35:13;;;;;;;4.43;2.27;;;;;;;15.23;87.32;100276.51;125667;1095;64297;-85
2021/07/29 04:37:43;;;;;;;4.73;2.10;;;;;;;15.28;86.82;100270.54;125867;1095;64279;-84
2021/07/29 04:40:11;;;;;;;6.70;1.70;;;;;;;15.29;86.91;100267.63;125714;1096;64294;-85
2021/07/29 04:43:18;;;;;;;4.03;2.00;;;;;;;15.32;86.09;100261.03;125536;1096;63098;-85
2021/07/29 04:45:51;;;;;;;5.10;2.07;;;;;;;15.37;86.09;100261.21;126016;1095;64310;-85
2021/07/29 04:48:39;;;;;;;3.57;1.83;;;;;;;15.41;85.25;100266.95;125803;1096;64375;-84
2021/07/29 04:51:06;;;;;;;2.93;1.77;;;;;;;15.46;85.48;100267.91;125767;1096;64255;-86
2021/07/29 04:53:35;;;;;;;2.80;1.93;;;;;;;15.48;85.88;100271.19;125673;1096;64201;-83
2021/07/29 04:56:03;;;;;;;4.77;1.90;;;;;;;15.50;85.85;100276.33;125736;1096;63288;-84
2021/07/29 04:58:30;;;;;;;2.80;1.87;;;;;;;15.48;85.24;100268.52;125846;1096;64170;-82
2021/07/29 05:01:04;;;;;;;3.00;1.73;;;;;;;15.50;85.03;100279.81;125453;1096;64259;-87
2021/07/29 05:03:37;;;;;;;2.40;1.60;;;;;;;15.50;84.77;100287.83;125203;1095;64281;-85
2021/07/29 05:06:59;;;;;;;;;;;;;;;;;;;;;
2021/07/29 05:09:26;;;;;;;3.10;1.40;;;;;;;15.52;84.53;100278.80;125305;1096;64298;-76
2021/07/29 05:11:53;;;;;;;3.03;1.47;;;;;;;15.53;84.09;100285.77;124670;1096;64304;-75
2021/07/29 05:14:20;;;;;;;3.17;1.80;;;;;;;15.57;83.17;100273.60;124730;1096;64289;-73
2021/07/29 05:16:48;;;;;;;3.50;1.90;;;;;;;15.60;83.01;100273.99;124742;1096;64293;-74
2021/07/29 05:19:15;;;;;;;4.67;1.93;;;;;;;15.63;82.80;100276.22;124459;1096;64387;-74
2021/07/29 05:21:42;;;;;;;2.60;1.80;;;;;;;15.69;82.90;100271.86;124764;1096;64872;-74
2021/07/29 05:24:09;;;;;;;3.43;1.77;;;;;;;15.75;82.96;100276.37;124707;1096;64384;-75
2021/07/29 05:26:37;;;;;;;3.93;1.80;;;;;;;15.79;82.79;100276.72;124707;1095;64250;-74
2021/07/29 05:29:04;;;;;;;3.93;1.90;;;;;;;15.85;81.84;100271.34;124742;1095;64285;-75
2021/07/29 05:31:31;;;;;;;3.10;1.90;;;;;;;15.90;80.86;100279.52;124475;1096;64301;-75
2021/07/29 05:33:59;;;;;;;5.73;1.60;;;;;;;15.95;80.86;100276.17;124745;1096;64196;-77
2021/07/29 05:36:34;;;;;;;5.90;1.77;;;;;;;16.02;80.23;100271.59;124732;1095;64304;-77
2021/07/29 05:39:02;;;;;;;2.77;1.87;;;;;;;16.17;79.07;100273.06;124762;1096;64255;-77
2021/07/29 05:41:29;;;;;;;2.87;1.60;;;;;;;16.31;78.01;100275.38;124706;1095;64301;-79
2021/07/29 05:43:57;;;;;;;2.10;1.37;;;;;;;16.49;77.56;100279.09;124880;1096;65065;-77
2021/07/29 05:46:24;;;;;;;3.03;1.73;;;;;;;16.64;76.88;100276.87;124753;1096;64435;-79
2021/07/29 05:48:51;;;;;;;2.60;1.60;;;;;;;16.74;74.95;100284.34;124762;1094;64300;-80
2021/07/29 05:51:18;;;;;;;2.60;1.27;;;;;;;16.84;74.90;100278.50;124830;1095;64208;-84
2021/07/29 05:53:45;;;;;;;2.40;1.53;;;;;;;16.93;73.57;100287.84;124841;1095;64770;-82
2021/07/29 05:56:12;;;;;;;3.67;1.40;;;;;;;16.97;73.62;100294.39;125037;1094;64270;-78
2021/07/29 05:58:41;;;;;;;2.13;1.70;;;;;;;17.00;72.73;100288.59;125299;1095;64275;-79
2021/07/29 06:01:11;;;;;;;5.40;1.40;;;;;;;16.99;73.93;100286.94;124780;1095;64272;-79
2021/07/29 06:03:39;;;;;;;1.80;1.30;;;;;;;16.99;73.32;100292.30;124957;1096;64282;-78
2021/07/29 06:06:06;;;;;;;3.80;1.40;;;;;;;17.03;73.48;100303.39;124530;1096;65896;-79
2021/07/29 06:08:33;;;;;;;3.20;1.47;;;;;;;17.08;73.31;100290.92;124961;1096;64276;-78
2021/07/29 06:11:04;;;;;;;4.30;1.35;;;;;;;17.16;72.19;100307.75;124862;1095;64327;-80
2021/07/29 06:13:34;;;;;;;5.33;1.47;;;;;;;17.23;72.07;100298.55;125095;1096;64304;-79
2021/07/29 06:16:09;;;;;;;4.05;1.40;;;;;;;17.24;71.38;100297.52;125003;1095;64195;-81
2021/07/29 06:18:42;;;;;;;3.33;1.23;;;;;;;17.31;71.89;100306.27;124999;1096;63606;-79
2021/07/29 06:21:10;;;;;;;2.70;1.47;;;;;;;17.45;72.32;100301.54;125149;1096;64416;-79
2021/07/29 06:23:56;;;;;;;4.80;1.97;;;;;;;17.58;70.84;100295.15;125463;1096;64301;-79
2021/07/29 06:26:24;;;;;;;3.27;1.30;;;;;;;17.74;69.92;100309.73;125053;1095;64259;-78
2021/07/29 06:28:51;;;;;;;2.33;1.30;;;;;;;17.81;69.24;100296.20;125216;1096;64312;-79
2021/07/29 06:31:19;;;;;;;4.50;1.93;;;;;;;17.93;69.48;100300.55;124683;1096;64143;-77
2021/07/29 06:33:46;;;;;;;4.70;1.87;;;;;;;17.93;67.58;100305.92;125045;1095;64300;-79
2021/07/29 06:36:13;;;;;;;3.77;1.20;;;;;;;17.85;68.52;100300.09;125265;1096;64284;-80
2021/07/29 06:38:44;;;;;;;2.97;1.50;;;;;;;17.81;68.47;100314.98;124913;1096;64240;-79
2021/07/29 06:41:11;;;;;;;3.57;1.40;;;;;;;17.75;68.04;100311.38;124800;1096;64307;-79
2021/07/29 06:43:38;;;;;;;4.00;1.40;;;;;;;17.64;68.30;100304.15;124530;1096;64795;-82
2021/07/29 06:46:07;;;;;;;4.07;1.27;;;;;;;17.51;68.41;100323.92;124770;1095;64250;-79
2021/07/29 06:48:35;;;;;;;2.40;1.30;;;;;;;17.40;68.80;100312.12;125051;1095;64285;-77
2021/07/29 06:51:07;;;;;;;3.03;1.13;;;;;;;17.31;68.70;100327.72;125038;1095;64381;-80
2021/07/29 06:53:36;;;;;;;3.53;1.47;;;;;;;17.38;69.86;100322.25;125023;1095;64282;-78
2021/07/29 06:56:05;;;;;;;3.90;1.40;;;;;;;17.46;69.00;100319.25;124785;1095;64329;-79
2021/07/29 06:58:33;;;;;;;1.87;1.00;;;;;;;17.59;69.44;100328.95;125405;1096;64359;-79
2021/07/29 07:01:04;;;;;;;2.13;1.20;;;;;;;17.70;68.28;100319.29;124766;1095;64293;-79
2021/07/29 07:03:32;;;;;;;5.33;1.30;;;;;;;17.81;68.83;100326.56;124949;1095;64304;-78
2021/07/29 07:06:05;;;;;;;2.50;1.03;;;;;;;17.96;66.03;100333.34;124806;1095;64205;-78
2021/07/29 07:08:33;;;;;;;6.43;1.43;;;;;;;17.91;65.95;100340.25;124673;1096;64380;-76
2021/07/29 07:11:01;;;;;;;3.67;1.07;;;;;;;17.88;65.77;100332.65;124892;1095;64419;-80
2021/07/29 07:13:28;;;;;;;2.47;1.07;;;;;;;17.92;65.62;100344.56;124975;1095;64307;-80
2021/07/29 07:15:55;;;;;;;2.80;1.10;;;;;;;18.03;65.86;100328.70;124949;1095;64278;-79
2021/07/29 07:18:22;;;;;;;6.17;1.93;;;;;;;18.10;64.95;100335.57;124541;1096;64288;-78
2021/07/29 07:20:50;;;;;;;8.20;1.50;;;;;;;18.14;65.46;100333.24;124834;1095;64307;-79
2021/07/29 07:23:17;;;;;;;6.70;1.50;;;;;;;18.17;63.79;100338.16;124587;1095;64317;-79
2021/07/29 07:25:46;;;;;;;4.30;1.50;;;;;;;18.26;64.42;100334.06;124865;1095;64301;-80
2021/07/29 07:28:14;;;;;;;5.57;3.27;;;;;;;18.26;63.52;100328.69;124757;1096;64294;-77
2021/07/29 07:30:41;;;;;;;4.73;1.00;;;;;;;18.27;62.34;100334.88;124887;1095;64294;-83
2021/07/29 07:33:08;;;;;;;3.33;1.57;;;;;;;18.24;63.70;100333.48;124924;1095;64259;-79
2021/07/29 07:35:35;;;;;;;3.20;1.10;;;;;;;18.23;63.78;100334.52;124767;1096;64272;-79
2021/07/29 07:38:02;;;;;;;6.23;1.20;;;;;;;18.17;62.42;100343.53;124902;1095;64281;-79
2021/07/29 07:40:30;;;;;;;4.80;1.30;;;;;;;18.26;62.70;100343.99;124808;1095;65435;-80
2021/07/29 07:42:57;;;;;;;6.50;1.33;;;;;;;18.38;62.62;100358.20;124782;1095;64324;-78
2021/07/29 07:45:27;;;;;;;4.10;1.10;;;;;;;18.36;61.09;100338.86;124784;1096;64284;-80
2021/07/29 07:47:54;;;;;;;3.77;1.37;;;;;;;18.44;61.42;100338.47;125187;1095;64358;-79
2021/07/29 07:50:21;;;;;;;2.67;1.50;;;;;;;18.44;60.09;100356.45;124900;1096;64281;-80
2021/07/29 07:52:49;;;;;;;6.27;1.60;;;;;;;18.52;60.16;100358.79;125322;1094;64237;-82
2021/07/29 07:55:16;;;;;;;3.30;1.20;;;;;;;18.56;59.99;100337.66;125264;1095;64205;-78
2021/07/29 07:57:43;;;;;;;5.17;1.73;;;;;;;18.53;60.01;100325.48;124765;1096;64298;-78
2021/07/29 08:00:11;;;;;;;7.40;1.55;;;;;;;18.51;60.66;100320.38;124679;1097;64637;-77
2021/07/29 08:03:04;;;;;;;5.25;1.85;;;;;;;18.62;61.08;100316.03;125246;1096;64728;-82
2021/07/29 08:05:31;;;;;;;5.37;1.50;;;;;;;18.69;59.12;100332.82;125693;1096;64298;-79
2021/07/29 08:08:00;;;;;;;3.63;1.27;;;;;;;18.84;59.18;100329.66;125559;1096;64205;-78
2021/07/29 08:10:30;;;;;;;6.90;1.43;;;;;;;18.95;58.44;100320.73;125537;1095;64373;-78
2021/07/29 08:12:59;;;;;;;5.30;1.50;;;;;;;19.11;57.75;100313.78;125401;1095;64314;-80
2021/07/29 08:15:26;;;;;;;2.95;1.50;;;;;;;19.13;55.88;100311.67;125776;1095;64202;-81
2021/07/29 08:17:54;;;;;;;2.93;1.33;;;;;;;19.10;55.33;100327.45;125350;1095;64406;-80
2021/07/29 08:20:24;;;;;;;2.40;1.20;;;;;;;19.09;55.67;100326.65;124992;1096;64250;-80
2021/07/29 08:23:00;;;;;;;6.57;1.97;;;;;;;19.19;55.93;100304.52;125514;1096;64452;-81
2021/07/29 08:25:35;;;;;;;4.33;1.70;;;;;;;19.21;54.21;100317.70;125649;1096;64176;-82
2021/07/29 08:28:14;;;;;;;6.10;1.47;;;;;;;19.20;53.86;100332.22;125281;1096;65472;-82
2021/07/29 08:30:44;;;;;;;3.47;1.10;;;;;;;19.23;53.27;100346.02;125164;1096;64255;-83
2021/07/29 08:33:15;;;;;;;4.77;1.40;;;;;;;19.33;53.56;100310.40;125267;1096;64287;-82
2021/07/29 08:35:44;;;;;;;4.90;1.30;;;;;;;19.45;52.78;100304.97;125261;1095;64288;-82
2021/07/29 08:38:11;;;;;;;3.43;1.20;;;;;;;19.68;54.10;100302.13;125437;1096;64340;-84
2021/07/29 08:40:42;;;;;;;4.60;1.55;;;;;;;19.81;53.16;100317.16;125785;1097;64230;-83
2021/07/29 08:43:10;;;;;;;2.60;1.23;;;;;;;19.87;51.06;100315.34;125740;1095;64255;-83
2021/07/29 08:45:44;;;;;;;5.97;1.93;;;;;;;19.98;51.83;100316.30;125665;1095;64371;-82
2021/07/29 08:48:12;;;;;;;3.03;1.08;;;;;;;20.04;50.40;100318.02;125721;1096;64208;-83
2021/07/29 08:50:39;;;;;;;6.07;1.30;;;;;;;20.18;50.82;100315.80;125292;1095;65517;-83
2021/07/29 08:53:07;;;;;;;3.80;1.40;;;;;;;20.16;51.87;100321.42;126251;1095;64224;-81
2021/07/29 08:55:34;;;;;;;5.73;1.50;;;;;;;20.08;51.26;100322.69;126266;1096;64316;-80
2021/07/29 08:58:01;;;;;;;4.80;1.47;;;;;;;19.99;50.30;100321.45;125456;1096;64272;-80
2021/07/29 09:00:31;;;;;;;1.83;1.00;;;;;;;19.77;48.83;100315.20;125368;1095;64402;-84
2021/07/29 09:03:24;;;;;;;4.23;1.43;;;;;;;19.75;49.41;100308.17;124837;1096;64437;-81
2021/07/29 09:06:05;;;;;;;2.57;1.00;;;;;;;19.73;48.69;100315.67;125151;1096;64179;-80
2021/07/29 09:09:08;;;;;;;5.70;1.30;;;;;;;19.61;49.56;100306.02;125176;1096;64761;-79
2021/07/29 09:11:45;;;;;;;4.03;1.20;;;;;;;19.78;50.23;100312.24;125270;1095;64294;-79
2021/07/29 09:14:29;;;;;;;;;;;;;;;;;;;;;
2021/07/29 09:17:08;;;;;;;3.73;0.90;;;;;;;19.95;47.81;100304.99;125056;1096;64435;-81
2021/07/29 09:19:41;;;;;;;6.77;1.33;;;;;;;19.93;48.26;100315.20;125335;1096;64235;-81
2021/07/29 09:22:52;;;;;;;2.73;1.10;;;;;;;20.11;48.91;100316.79;125353;1095;64400;-80
2021/07/29 09:25:57;;;;;;;7.40;1.00;;;;;;;20.20;46.10;100311.79;125004;1096;64253;-82
2021/07/29 09:28:50;;;;;;;1.70;1.00;;;;;;;20.14;46.00;100305.51;125044;1096;64328;-81
2021/07/29 09:31:19;;;;;;;1.97;1.00;;;;;;;20.12;45.39;100301.44;125062;1096;64341;-80
2021/07/29 09:34:13;;;;;;;5.10;1.23;;;;;;;20.13;45.13;100317.36;125285;1096;62192;-80
2021/07/29 09:36:45;;;;;;;3.30;1.13;;;;;;;20.28;45.65;100299.79;125024;1096;64389;-80
2021/07/29 09:39:18;;;;;;;2.27;0.80;;;;;;;20.47;44.89;100281.45;124872;1096;64141;-80
2021/07/29 09:41:54;;;;;;;2.45;1.00;;;;;;;20.66;44.49;100307.04;125342;1096;64281;-82
2021/07/29 09:44:42;;;;;;;4.70;1.10;;;;;;;20.79;44.62;100294.25;124696;1096;64445;-80
2021/07/29 09:47:12;;;;;;;2.53;1.00;;;;;;;21.01;44.32;100296.90;124844;1095;64593;-80
2021/07/29 09:49:41;;;;;;;6.27;0.80;;;;;;;20.86;41.89;100319.13;125094;1096;64301;-80
2021/07/29 09:52:13;;;;;;;3.67;0.90;;;;;;;20.60;43.13;100302.65;125081;1095;65097;-81
2021/07/29 09:54:44;;;;;;;4.40;0.97;;;;;;;20.43;44.47;100291.90;125064;1095;64295;-84
2021/07/29 09:57:18;;;;;;;2.90;1.10;;;;;;;20.41;44.46;100307.50;125211;1097;64374;-82
2021/07/29 09:59:45;;;;;;;1.55;0.85;;;;;;;20.41;45.03;100298.61;125208;1096;64316;-82
2021/07/29 10:02:13;;;;;;;4.80;0.90;;;;;;;20.40;45.23;100315.82;124936;1096;64320;-80
2021/07/29 10:04:48;;;;;;;2.00;1.00;;;;;;;20.34;44.74;100315.77;125154;1096;64227;-79
2021/07/29 10:07:35;;;;;;;2.57;1.20;;;;;;;20.19;45.08;100307.48;124724;1096;64490;-78
2021/07/29 10:10:07;;;;;;;3.63;1.00;;;;;;;20.05;45.60;100306.20;124897;1096;64227;-79
2021/07/29 10:12:38;;;;;;;1.77;0.80;;;;;;;20.03;46.69;100303.73;124805;1096;64304;-81
2021/07/29 10:15:06;;;;;;;2.87;0.90;;;;;;;20.22;45.15;100298.89;124752;1095;64290;-81
2021/07/29 10:17:36;;;;;;;4.43;0.93;;;;;;;20.61;44.43;100301.56;124899;1095;64297;-83
2021/07/29 10:20:16;;;;;;;4.97;1.17;;;;;;;21.09;43.88;100310.73;125524;1095;64307;-80
2021/07/29 10:22:44;;;;;;;5.83;1.00;;;;;;;21.17;43.14;100294.11;125467;1095;64340;-79
2021/07/29 10:25:19;;;;;;;1.93;1.00;;;;;;;21.09;42.76;100315.33;124772;1095;64250;-82
2021/07/29 10:28:22;;;;;;;3.00;1.10;;;;;;;21.01;43.37;100330.06;125032;1096;64299;-79
2021/07/29 10:30:57;;;;;;;2.17;0.80;;;;;;;21.25;43.63;100302.80;125134;1096;64281;-79
2021/07/29 10:33:28;;;;;;;2.80;0.80;;;;;;;21.47;43.71;100306.28;125100;1096;64300;-80
2021/07/29 10:36:05;;;;;;;5.27;0.77;;;;;;;21.64;41.80;100316.14;125078;1097;64420;-80
2021/07/29 10:38:39;;;;;;;3.80;0.93;;;;;;;21.56;41.84;100329.02;124892;1096;64198;-81
2021/07/29 10:41:08;;;;;;;2.47;0.90;;;;;;;21.45;42.37;100324.61;125139;1096;64343;-79
2021/07/29 10:43:36;;;;;;;2.93;0.90;;;;;;;21.24;42.58;100311.97;125032;1095;64195;-81
2021/07/29 10:46:03;;;;;;;2.03;0.70;;;;;;;21.01;42.88;100327.37;125462;1094;64285;-86
2021/07/29 10:48:40;;;;;;;3.97;1.23;;;;;;;21.12;43.71;100318.34;125234;1095;64298;-80
2021/07/29 10:51:14;;;;;;;1.80;0.70;;;;;;;21.25;44.57;100317.12;125284;1096;64323;-81
2021/07/29 10:53:46;;;;;;;3.63;0.90;;;;;;;21.24;43.57;100322.77;125220;1095;64362;-81
2021/07/29 10:56:15;;;;;;;2.53;0.90;;;;;;;21.27;43.62;100316.84;125292;1095;64208;-81
2021/07/29 10:58:45;;;;;;;3.37;1.03;;;;;;;21.21;43.57;100334.05;125588;1097;64294;-81
2021/07/29 11:01:14;;;;;;;2.50;0.80;;;;;;;21.14;43.50;100329.66;125833;1096;64362;-81
2021/07/29 11:03:54;;;;;;;4.73;0.80;;;;;;;21.10;43.34;100327.73;125546;1095;64255;-82
2021/07/29 11:06:36;;;;;;;2.57;0.80;;;;;;;21.18;43.28;100319.99;125724;1095;64294;-81
2021/07/29 11:09:17;;;;;;;2.63;0.90;;;;;;;21.28;43.04;100313.09;126051;1096;64169;-80
2021/07/29 11:11:47;;;;;;;3.23;0.80;;;;;;;21.24;42.71;100311.97;125920;1096;64319;-81
2021/07/29 11:14:24;;;;;;;4.60;0.77;;;;;;;21.26;43.46;100307.13;125724;1096;64419;-81
2021/07/29 11:16:52;;;;;;;5.47;1.07;;;;;;;21.42;43.29;100335.93;126158;1097;64258;-80
2021/07/29 11:19:19;;;;;;;4.10;0.90;;;;;;;21.45;42.51;100332.70;125793;1095;64145;-81
2021/07/29 11:22:02;;;;;;;3.43;0.83;;;;;;;21.72;42.14;100318.37;126136;1095;64358;-79
2021/07/29 11:24:30;;;;;;;4.00;1.17;;;;;;;21.63;40.84;100333.39;126940;1095;64307;-78
2021/07/29 11:26:58;;;;;;;4.00;1.00;;;;;;;21.53;39.49;100347.63;126253;1096;64256;-81
2021/07/29 11:29:25;;;;;;;2.73;0.70;;;;;;;21.37;40.01;100325.03;125790;1095;64295;-81
2021/07/29 11:31:58;;;;;;;4.63;1.30;;;;;;;21.37;40.77;100322.34;126416;1097;64326;-79
2021/07/29 11:34:30;;;;;;;5.03;1.00;;;;;;;21.39;40.79;100326.41;128326;1097;61747;-81
2021/07/29 11:36:58;;;;;;;2.63;0.87;;;;;;;21.49;40.16;100323.03;128322;1095;61946;-80
2021/07/29 11:39:37;;;;;;;3.70;0.80;;;;;;;21.56;40.58;100339.81;127338;1096;64587;-81
2021/07/29 11:42:04;;;;;;;3.70;0.70;;;;;;;21.52;40.82;100329.79;125729;1096;64212;-81
2021/07/29 11:44:43;;;;;;;2.37;0.60;;;;;;;21.52;41.85;100325.20;125734;1095;64301;-81
2021/07/29 11:47:11;;;;;;;4.60;0.97;;;;;;;21.46;41.34;100330.81;126094;1096;64258;-79
2021/07/29 11:49:49;;;;;;;2.47;0.70;;;;;;;21.45;42.08;100319.21;127405;1097;64277;-80
2021/07/29 11:52:19;;;;;;;5.70;0.80;;;;;;;21.37;41.36;100317.75;125541;1096;64201;-80